Time;durP1;ratioP1;P1;durP2;ratioP2;P2;SDS_P1;SDS_P2;PMS_P1;PMS_P2;Temp;Humidity;BMP_temperature;BMP_pressure;BME280_temperature;BME280_humidity;BME280_pressure;Samples;Min_cycle;Max_cycle;Signal;HPM_P1;HPM_P2
2021/07/16 00:00:50;;;;;;;3.40;2.87;;;16.60;99.90;;;;;;5024278;28;20451;-72
2021/07/16 00:03:35;;;;;;;4.87;2.27;;;16.60;99.90;;;;;;5027821;28;20481;-72
2021/07/16 00:06:22;;;;;;;6.33;2.70;;;16.60;99.90;;;;;;5030419;28;20421;-72
2021/07/16 00:09:09;;;;;;;4.57;2.50;;;16.60;99.90;;;;;;5030541;28;20802;-72
2021/07/16 00:11:54;;;;;;;6.33;2.30;;;16.70;99.90;;;;;;5021181;28;20452;-73
2021/07/16 00:14:40;;;;;;;5.70;2.23;;;16.70;99.90;;;;;;5021576;28;20496;-72
2021/07/16 00:17:25;;;;;;;6.43;2.60;;;16.70;99.90;;;;;;5028158;28;20451;-72
2021/07/16 00:20:13;;;;;;;3.77;2.30;;;16.70;99.90;;;;;;5030747;28;20496;-72
2021/07/16 00:23:00;;;;;;;3.20;2.20;;;16.80;99.90;;;;;;5027690;28;20539;-72
2021/07/16 00:25:46;;;;;;;3.70;2.73;;;16.90;99.90;;;;;;5024593;28;20946;-72
2021/07/16 00:28:31;;;;;;;12.87;2.77;;;16.90;99.90;;;;;;5024158;28;20450;-72
2021/07/16 00:31:17;;;;;;;12.87;2.97;;;16.80;99.90;;;;;;5030281;28;20549;-72
2021/07/16 00:34:03;;;;;;;9.83;2.53;;;16.60;99.90;;;;;;5021760;28;20436;-72
2021/07/16 00:36:49;;;;;;;11.83;2.30;;;16.40;99.90;;;;;;5027584;28;20494;-72
2021/07/16 00:39:37;;;;;;;3.40;1.97;;;16.40;99.90;;;;;;5029320;28;20417;-72
2021/07/16 00:42:22;;;;;;;3.83;2.40;;;16.50;99.90;;;;;;5030064;28;20560;-72
2021/07/16 00:45:11;;;;;;;4.93;2.50;;;16.40;99.90;;;;;;5030950;28;20451;-72
2021/07/16 00:47:56;;;;;;;7.40;3.00;;;16.30;99.90;;;;;;5028500;28;20455;-72
2021/07/16 00:50:43;;;;;;;8.47;2.20;;;16.40;99.90;;;;;;5029900;28;20578;-73
2021/07/16 00:53:29;;;;;;;13.30;3.23;;;16.40;99.90;;;;;;5026407;28;20435;-72
2021/07/16 00:56:16;;;;;;;9.37;2.27;;;16.30;99.90;;;;;;5029314;28;20521;-72
2021/07/16 00:59:03;;;;;;;4.73;2.57;;;16.30;99.90;;;;;;5022962;28;20443;-72
2021/07/16 01:01:49;;;;;;;4.90;2.33;;;16.40;99.90;;;;;;5024900;28;20451;-72
2021/07/16 01:04:36;;;;;;;11.20;2.23;;;16.50;99.90;;;;;;5029272;28;20545;-72
2021/07/16 01:07:21;;;;;;;7.47;2.77;;;16.50;99.90;;;;;;5025289;28;20474;-72
2021/07/16 01:10:09;;;;;;;18.03;3.30;;;16.50;99.90;;;;;;5031352;28;20435;-72
2021/07/16 01:12:56;;;;;;;9.43;3.40;;;16.30;99.90;;;;;;5026151;28;20457;-72
2021/07/16 01:15:42;;;;;;;8.90;3.57;;;16.30;99.90;;;;;;5020205;28;20469;-73
2021/07/16 01:18:28;;;;;;;9.40;3.73;;;16.20;99.90;;;;;;5030111;28;20510;-72
2021/07/16 01:21:15;;;;;;;24.57;5.17;;;16.20;99.90;;;;;;5030596;28;20899;-72
2021/07/16 01:24:03;;;;;;;11.00;3.87;;;16.10;99.90;;;;;;5025531;28;20452;-72
2021/07/16 01:26:49;;;;;;;19.93;4.33;;;16.10;99.90;;;;;;5026828;28;20432;-72
2021/07/16 01:29:36;;;;;;;27.97;5.13;;;16.20;99.90;;;;;;5027884;28;20451;-73
2021/07/16 01:32:21;;;;;;;6.57;4.50;;;16.10;99.90;;;;;;5030660;28;20447;-72
2021/07/16 01:35:08;;;;;;;8.93;4.47;;;16.20;99.90;;;;;;5025743;28;20430;-72
2021/07/16 01:37:54;;;;;;;6.73;3.77;;;16.20;99.90;;;;;;5023336;28;20421;-72
2021/07/16 01:40:41;;;;;;;4.60;3.27;;;16.30;99.90;;;;;;5029249;28;20461;-72
2021/07/16 01:43:27;;;;;;;8.53;3.90;;;16.40;99.90;;;;;;5030917;28;20538;-72
2021/07/16 01:46:12;;;;;;;21.17;4.73;;;16.40;99.90;;;;;;5027897;28;20505;-72
2021/07/16 01:48:58;;;;;;;7.83;4.40;;;16.50;99.90;;;;;;5017613;28;20438;-72
2021/07/16 01:51:44;;;;;;;11.93;4.80;;;16.40;99.90;;;;;;5019314;28;20576;-72
2021/07/16 01:54:30;;;;;;;3.90;3.13;;;16.20;99.90;;;;;;5017704;28;20459;-73
2021/07/16 01:57:16;;;;;;;3.70;3.30;;;16.20;99.90;;;;;;5029876;28;20471;-72
2021/07/16 02:00:04;;;;;;;5.83;3.90;;;16.30;99.90;;;;;;5031467;28;20413;-73
2021/07/16 02:02:51;;;;;;;3.20;2.90;;;16.30;99.90;;;;;;5026242;28;20483;-72
2021/07/16 02:05:38;;;;;;;5.90;3.20;;;16.30;99.90;;;;;;5022622;28;20522;-73
2021/07/16 02:08:25;;;;;;;3.00;2.70;;;16.30;99.90;;;;;;5029794;28;20929;-72
2021/07/16 02:11:10;;;;;;;3.40;2.73;;;16.40;99.90;;;;;;5025312;28;20490;-72
2021/07/16 02:13:57;;;;;;;5.03;3.10;;;16.40;99.90;;;;;;5024107;28;20464;-71
2021/07/16 02:16:43;;;;;;;8.13;2.90;;;16.40;99.90;;;;;;5027986;28;20479;-71
2021/07/16 02:19:33;;;;;;;4.83;2.87;;;16.40;99.90;;;;;;5031167;28;20424;-71
2021/07/16 02:22:19;;;;;;;5.57;2.30;;;16.30;99.90;;;;;;5021233;28;20909;-71
2021/07/16 02:25:06;;;;;;;4.10;2.60;;;16.30;99.90;;;;;;5020791;28;20626;-71
2021/07/16 02:27:55;;;;;;;5.90;2.77;;;16.40;99.90;;;;;;5021889;28;20501;-71
2021/07/16 02:30:42;;;;;;;6.33;3.17;;;16.40;99.90;;;;;;5020060;28;20467;-71
2021/07/16 02:33:28;;;;;;;7.30;2.40;;;16.30;99.90;;;;;;5019470;28;20437;-71
2021/07/16 02:36:16;;;;;;;9.27;2.90;;;16.20;99.90;;;;;;5021402;28;20497;-71
2021/07/16 02:39:02;;;;;;;5.00;2.63;;;16.00;99.90;;;;;;5031771;28;20791;-72
2021/07/16 02:41:48;;;;;;;6.83;3.27;;;16.00;99.90;;;;;;5023814;28;20777;-71
2021/07/16 02:44:33;;;;;;;3.47;2.87;;;16.00;99.90;;;;;;5028779;28;20527;-71
2021/07/16 02:47:20;;;;;;;6.03;3.00;;;16.00;99.90;;;;;;5026656;28;20438;-71
2021/07/16 02:50:06;;;;;;;65.80;5.67;;;16.10;99.90;;;;;;5027133;28;20437;-71
2021/07/16 02:52:53;;;;;;;107.67;6.00;;;16.00;99.90;;;;;;5022846;28;20516;-71
2021/07/16 02:55:40;;;;;;;54.03;5.77;;;15.80;99.90;;;;;;5027683;28;20432;-71
2021/07/16 02:58:25;;;;;;;54.87;6.30;;;15.90;99.90;;;;;;5028280;28;20829;-71
2021/07/16 03:01:11;;;;;;;208.63;7.80;;;16.00;99.90;;;;;;5027526;28;20432;-71
2021/07/16 03:03:58;;;;;;;243.70;7.17;;;16.10;99.90;;;;;;5028434;28;20444;-71
2021/07/16 03:06:44;;;;;;;51.83;4.50;;;15.90;99.90;;;;;;5028509;28;20552;-71
2021/07/16 03:09:34;;;;;;;98.63;6.20;;;15.90;99.90;;;;;;5027442;28;20496;-72
2021/07/16 03:12:19;;;;;;;10.57;4.87;;;15.90;99.90;;;;;;5024248;28;20455;-72
2021/07/16 03:15:06;;;;;;;6.00;4.33;;;16.00;99.90;;;;;;5029955;28;20450;-72
2021/07/16 03:17:52;;;;;;;11.33;4.20;;;16.00;99.90;;;;;;5020319;28;20471;-72
2021/07/16 03:20:41;;;;;;;3.97;3.40;;;16.10;99.90;;;;;;5033310;28;20496;-72
2021/07/16 03:23:27;;;;;;;18.47;3.70;;;16.10;99.90;;;;;;5033710;28;20632;-71
2021/07/16 03:26:13;;;;;;;4.10;3.20;;;16.10;99.90;;;;;;5023197;28;20429;-71
2021/07/16 03:28:59;;;;;;;3.93;3.57;;;16.20;99.90;;;;;;5032947;28;20567;-71
2021/07/16 03:31:44;;;;;;;7.20;4.50;;;16.20;99.90;;;;;;5026354;28;20585;-72
2021/07/16 03:34:30;;;;;;;4.07;3.67;;;16.30;99.90;;;;;;5025244;28;20982;-71
2021/07/16 03:37:17;;;;;;;7.00;4.10;;;16.40;99.90;;;;;;5024506;28;20410;-71
2021/07/16 03:40:04;;;;;;;17.73;4.03;;;16.40;99.90;;;;;;5030099;28;20515;-72
2021/07/16 03:42:49;;;;;;;5.30;3.80;;;16.40;99.90;;;;;;5029687;28;20457;-71
2021/07/16 03:45:36;;;;;;;4.43;3.60;;;16.40;99.90;;;;;;5032312;28;20421;-72
2021/07/16 03:48:21;;;;;;;9.33;4.40;;;16.40;99.90;;;;;;5031748;28;20427;-72
2021/07/16 03:51:07;;;;;;;5.83;4.40;;;16.40;99.90;;;;;;5032719;28;20433;-72
2021/07/16 03:53:54;;;;;;;16.40;4.13;;;16.40;99.90;;;;;;5029351;28;20513;-71
2021/07/16 03:56:39;;;;;;;14.73;3.93;;;16.30;99.90;;;;;;5026757;28;20451;-71
2021/07/16 03:59:25;;;;;;;20.50;4.83;;;16.30;99.90;;;;;;5031251;28;20516;-72
2021/07/16 04:02:11;;;;;;;19.73;3.80;;;16.10;99.90;;;;;;5032283;28;20470;-72
2021/07/16 04:04:56;;;;;;;21.03;3.63;;;16.10;99.90;;;;;;5025941;28;20454;-71
2021/07/16 04:07:46;;;;;;;10.10;3.40;;;16.10;99.90;;;;;;5030767;28;20491;-71
2021/07/16 04:10:35;;;;;;;4.53;3.00;;;16.10;99.90;;;;;;5030111;28;20457;-72
2021/07/16 04:13:21;;;;;;;5.83;3.80;;;16.00;99.90;;;;;;5027628;28;20494;-72
2021/07/16 04:16:07;;;;;;;7.67;3.03;;;16.00;99.90;;;;;;5028099;28;20421;-71
2021/07/16 04:18:52;;;;;;;13.20;3.10;;;16.10;99.90;;;;;;5023276;28;21077;-71
2021/07/16 04:21:38;;;;;;;9.10;3.80;;;16.10;99.90;;;;;;5030401;28;20807;-72
2021/07/16 04:24:23;;;;;;;8.53;3.20;;;16.10;99.90;;;;;;5031631;28;20540;-71
2021/07/16 04:27:12;;;;;;;8.40;3.67;;;16.10;99.90;;;;;;5032510;28;20435;-71
2021/07/16 04:29:58;;;;;;;4.30;3.90;;;16.10;99.90;;;;;;5026124;28;20475;-71
2021/07/16 04:32:44;;;;;;;4.77;4.23;;;16.10;99.90;;;;;;5030799;28;20565;-71
2021/07/16 04:35:31;;;;;;;7.07;4.03;;;16.10;99.90;;;;;;5031281;28;20586;-71
2021/07/16 04:38:18;;;;;;;20.83;4.40;;;16.10;99.90;;;;;;5028520;28;20795;-71
2021/07/16 04:41:04;;;;;;;16.00;5.20;;;16.10;99.90;;;;;;5033836;28;20955;-72
2021/07/16 04:43:50;;;;;;;6.93;4.33;;;16.00;99.90;;;;;;5025793;28;20576;-71
2021/07/16 04:46:36;;;;;;;4.97;4.00;;;16.00;99.90;;;;;;5020731;28;20928;-71
2021/07/16 04:49:22;;;;;;;57.03;5.03;;;16.00;99.90;;;;;;5030201;28;20838;-71
2021/07/16 04:52:08;;;;;;;108.10;4.80;;;16.10;99.90;;;;;;5024809;28;20562;-71
2021/07/16 04:54:53;;;;;;;87.90;4.67;;;16.20;99.90;;;;;;5016716;28;20442;-71
2021/07/16 04:57:39;;;;;;;21.63;4.07;;;16.00;99.90;;;;;;5019302;28;20462;-71
2021/07/16 05:00:26;;;;;;;101.70;4.63;;;15.70;99.90;;;;;;5027348;28;20828;-71
2021/07/16 05:03:11;;;;;;;3.30;2.80;;;15.70;99.90;;;;;;5029564;28;20935;-71
2021/07/16 05:05:57;;;;;;;3.80;3.33;;;15.70;99.90;;;;;;5028193;28;20976;-71
2021/07/16 05:08:43;;;;;;;3.03;2.73;;;15.80;99.90;;;;;;5028461;28;20408;-71
2021/07/16 05:11:30;;;;;;;2.67;2.43;;;15.90;99.90;;;;;;5026232;28;20434;-71
2021/07/16 05:14:16;;;;;;;3.63;2.37;;;16.00;99.90;;;;;;5031844;28;20425;-71
2021/07/16 05:17:03;;;;;;;14.80;2.80;;;16.10;99.90;;;;;;5030148;28;20452;-71
2021/07/16 05:19:49;;;;;;;5.93;2.70;;;16.20;99.90;;;;;;5025335;28;20429;-71
2021/07/16 05:22:35;;;;;;;2.90;2.60;;;16.30;99.90;;;;;;5019426;28;20423;-71
2021/07/16 05:25:22;;;;;;;3.80;3.03;;;16.30;99.90;;;;;;5025586;28;20453;-71
2021/07/16 05:28:08;;;;;;;3.63;3.17;;;16.40;99.90;;;;;;5026800;28;20545;-71
2021/07/16 05:30:54;;;;;;;6.57;3.37;;;16.50;99.90;;;;;;5023967;28;20447;-71
2021/07/16 05:33:41;;;;;;;4.23;3.70;;;16.50;99.90;;;;;;5026991;28;20991;-71
2021/07/16 05:36:27;;;;;;;6.40;4.80;;;16.60;99.90;;;;;;5019999;28;20451;-71
2021/07/16 05:39:13;;;;;;;7.50;4.30;;;16.70;99.90;;;;;;5025089;28;20416;-72
2021/07/16 05:42:03;;;;;;;5.90;4.53;;;16.70;99.90;;;;;;5024215;28;20451;-71
2021/07/16 05:44:49;;;;;;;9.40;6.20;;;16.80;99.90;;;;;;5030618;28;20470;-72
2021/07/16 05:47:35;;;;;;;7.33;6.23;;;16.80;99.90;;;;;;5020180;28;20424;-71
2021/07/16 05:50:22;;;;;;;6.43;4.20;;;16.80;99.90;;;;;;5022500;28;20446;-71
2021/07/16 05:53:08;;;;;;;4.57;3.50;;;16.80;99.90;;;;;;5019780;28;20477;-71
2021/07/16 05:55:54;;;;;;;4.00;3.00;;;16.80;99.90;;;;;;5027286;28;20821;-71
2021/07/16 05:58:40;;;;;;;4.00;3.60;;;16.80;99.90;;;;;;5027538;28;20453;-71
2021/07/16 06:01:25;;;;;;;4.30;3.90;;;16.80;99.90;;;;;;5030390;28;20510;-71
2021/07/16 06:04:11;;;;;;;8.00;4.37;;;16.90;99.90;;;;;;5025280;28;20483;-71
2021/07/16 06:06:58;;;;;;;6.57;4.37;;;16.90;99.90;;;;;;5030838;28;20439;-72
2021/07/16 06:09:45;;;;;;;7.10;4.00;;;17.00;99.90;;;;;;5019398;28;20447;-71
2021/07/16 06:12:30;;;;;;;4.57;4.10;;;16.90;99.90;;;;;;5030093;28;20542;-71
2021/07/16 06:15:16;;;;;;;4.90;4.07;;;16.90;99.90;;;;;;5021827;28;20516;-72
2021/07/16 06:18:02;;;;;;;4.77;4.33;;;17.00;99.90;;;;;;5030224;28;20438;-71
2021/07/16 06:20:48;;;;;;;12.50;3.90;;;17.10;99.90;;;;;;5030124;28;20451;-72
2021/07/16 06:23:35;;;;;;;4.60;3.77;;;17.20;99.90;;;;;;5028851;28;20450;-72
2021/07/16 06:26:21;;;;;;;5.30;3.20;;;17.20;99.90;;;;;;5028556;28;20965;-72
2021/07/16 06:29:07;;;;;;;2.97;2.70;;;17.30;99.90;;;;;;5029144;28;20569;-71
2021/07/16 06:31:53;;;;;;;4.13;2.93;;;17.50;99.90;;;;;;5016917;28;20458;-72
2021/07/16 06:34:38;;;;;;;3.53;3.13;;;17.50;99.90;;;;;;5030291;28;20904;-71
2021/07/16 06:37:24;;;;;;;3.20;2.80;;;17.70;99.90;;;;;;5030610;28;20425;-71
2021/07/16 06:40:13;;;;;;;2.77;2.57;;;17.80;99.90;;;;;;5026302;28;20500;-71
2021/07/16 06:42:58;;;;;;;2.77;2.50;;;17.90;99.90;;;;;;5030107;28;20550;-71
2021/07/16 06:45:44;;;;;;;2.60;2.40;;;18.10;99.90;;;;;;5026489;28;20445;-71
2021/07/16 06:48:29;;;;;;;5.40;3.07;;;18.30;99.90;;;;;;5025703;28;20813;-71
2021/07/16 06:51:17;;;;;;;7.50;3.10;;;18.50;99.90;;;;;;5031162;28;20947;-72
2021/07/16 06:54:04;;;;;;;2.77;2.43;;;18.70;99.90;;;;;;5032256;28;20553;-71
2021/07/16 06:56:51;;;;;;;3.50;3.20;;;18.80;99.90;;;;;;5032014;28;20425;-72
2021/07/16 06:59:37;;;;;;;5.17;3.30;;;18.90;99.90;;;;;;5028906;28;20915;-72
2021/07/16 07:02:23;;;;;;;5.33;3.63;;;19.00;99.90;;;;;;5019804;28;20435;-71
2021/07/16 07:05:09;;;;;;;6.23;4.03;;;19.20;99.90;;;;;;5032102;28;20532;-71
2021/07/16 07:07:55;;;;;;;3.67;3.33;;;19.30;99.90;;;;;;5023765;28;20500;-71
2021/07/16 07:10:40;;;;;;;4.17;3.73;;;19.40;99.90;;;;;;5034174;28;20458;-71
2021/07/16 07:13:28;;;;;;;4.60;3.90;;;19.50;99.90;;;;;;5031036;28;20852;-71
2021/07/16 07:16:16;;;;;;;5.27;4.20;;;19.60;99.90;;;;;;5021924;28;20427;-70
2021/07/16 07:19:01;;;;;;;8.43;3.77;;;19.60;99.90;;;;;;5031590;28;20479;-71
2021/07/16 07:21:47;;;;;;;3.37;3.00;;;19.80;99.90;;;;;;5023295;28;20462;-71
2021/07/16 07:24:32;;;;;;;4.17;3.60;;;19.90;99.90;;;;;;5022774;28;20487;-71
2021/07/16 07:27:18;;;;;;;5.07;4.50;;;19.90;99.90;;;;;;5023822;28;20457;-71
2021/07/16 07:30:07;;;;;;;7.60;4.27;;;20.00;99.90;;;;;;5030674;28;20435;-71
2021/07/16 07:32:53;;;;;;;5.10;4.10;;;20.10;99.90;;;;;;5024243;28;20526;-71
2021/07/16 07:35:38;;;;;;;5.63;3.60;;;20.10;99.90;;;;;;5033661;28;20428;-71
2021/07/16 07:38:26;;;;;;;4.00;3.60;;;20.20;99.90;;;;;;5033670;28;20423;-71
2021/07/16 07:41:11;;;;;;;14.10;4.27;;;20.20;99.90;;;;;;5029597;28;20428;-71
2021/07/16 07:43:57;;;;;;;4.60;3.43;;;20.30;99.90;;;;;;5021123;28;20531;-72
2021/07/16 07:46:45;;;;;;;5.60;3.80;;;20.30;99.90;;;;;;5028065;28;20436;-71
2021/07/16 07:49:31;;;;;;;5.43;3.70;;;20.50;99.90;;;;;;5033819;28;20523;-71
2021/07/16 07:52:16;;;;;;;6.13;3.20;;;20.60;99.90;;;;;;5030651;28;20927;-71
2021/07/16 07:55:02;;;;;;;7.03;3.50;;;20.60;99.90;;;;;;5029551;28;20535;-71
2021/07/16 07:57:51;;;;;;;4.90;4.07;;;20.70;99.90;;;;;;5031550;28;20546;-71
2021/07/16 08:00:37;;;;;;;3.40;3.10;;;20.90;99.90;;;;;;5030433;28;20430;-71
2021/07/16 08:03:24;;;;;;;7.20;3.60;;;21.00;99.90;;;;;;5030810;28;20475;-71
2021/07/16 08:06:09;;;;;;;5.20;4.17;;;21.10;99.90;;;;;;5020327;28;20472;-71
2021/07/16 08:08:55;;;;;;;4.03;3.63;;;21.10;99.90;;;;;;5028301;28;20444;-71
2021/07/16 08:11:41;;;;;;;9.07;5.33;;;21.20;99.90;;;;;;5023550;28;20866;-71
2021/07/16 08:14:27;;;;;;;5.40;4.60;;;21.30;99.90;;;;;;5043533;22;20638;-73
2021/07/16 08:17:13;;;;;;;5.00;4.33;;;21.40;99.90;;;;;;5031931;28;20590;-73
2021/07/16 08:20:00;;;;;;;8.60;6.00;;;21.40;99.90;;;;;;5032694;28;20792;-74
2021/07/16 08:22:46;;;;;;;8.73;5.30;;;21.50;99.90;;;;;;5019373;28;20418;-73
2021/07/16 08:25:34;;;;;;;5.83;5.20;;;21.60;99.90;;;;;;5025734;28;20447;-73
2021/07/16 08:28:20;;;;;;;7.00;5.37;;;21.80;99.90;;;;;;5031616;28;20546;-74
2021/07/16 08:31:06;;;;;;;7.33;5.90;;;21.90;99.90;;;;;;5026885;28;20477;-73
2021/07/16 08:33:52;;;;;;;6.10;5.00;;;22.10;99.90;;;;;;5031048;28;20469;-73
2021/07/16 08:36:39;;;;;;;5.57;4.90;;;22.20;99.90;;;;;;5029183;28;20419;-73
2021/07/16 08:39:25;;;;;;;6.50;5.40;;;22.30;99.90;;;;;;5028952;28;20515;-73
2021/07/16 08:42:13;;;;;;;7.33;5.60;;;22.20;99.90;;;;;;5029108;28;20436;-73
2021/07/16 08:45:02;;;;;;;11.50;6.03;;;22.20;99.90;;;;;;5029771;28;20473;-73
2021/07/16 08:47:48;;;;;;;5.97;5.37;;;22.20;99.90;;;;;;5025574;28;20453;-73
2021/07/16 08:50:35;;;;;;;8.00;5.70;;;22.20;99.90;;;;;;5026097;28;20468;-74
2021/07/16 08:53:23;;;;;;;7.47;6.10;;;22.30;99.90;;;;;;5026703;28;20561;-74
2021/07/16 08:56:09;;;;;;;7.63;5.53;;;22.30;99.90;;;;;;5029035;28;20531;-73
2021/07/16 08:58:55;;;;;;;6.40;5.50;;;22.40;99.90;;;;;;5025669;28;20454;-73
2021/07/16 09:01:42;;;;;;;9.23;6.77;;;22.50;99.90;;;;;;5023977;28;20529;-73
2021/07/16 09:04:28;;;;;;;9.40;7.30;;;22.50;99.90;;;;;;5030895;28;20557;-73
2021/07/16 09:07:14;;;;;;;7.63;5.40;;;22.60;99.90;;;;;;5032226;28;20572;-73
2021/07/16 09:10:12;;;;;;;6.60;5.30;;;22.60;99.90;;;;;;5035628;28;20444;-73
2021/07/16 09:12:59;;;;;;;7.90;6.63;;;22.60;99.90;;;;;;5026006;28;20418;-73
2021/07/16 09:15:50;;;;;;;8.00;7.10;;;22.60;99.90;;;;;;5031382;28;20464;-73
2021/07/16 09:18:37;;;;;;;7.03;6.23;;;22.50;99.90;;;;;;5032064;28;20476;-73
2021/07/16 09:21:22;;;;;;;8.80;6.40;;;22.40;99.90;;;;;;5032062;28;20488;-73
2021/07/16 09:24:08;;;;;;;11.37;7.83;;;22.40;99.90;;;;;;5032208;28;20440;-73
2021/07/16 09:26:55;;;;;;;7.00;5.30;;;22.40;99.90;;;;;;5032347;28;21030;-73
2021/07/16 09:29:41;;;;;;;9.40;6.90;;;22.30;99.90;;;;;;5031708;28;20441;-73
2021/07/16 09:32:29;;;;;;;9.50;7.30;;;22.30;99.90;;;;;;5031829;28;20437;-73
2021/07/16 09:35:20;;;;;;;8.10;6.50;;;22.40;99.90;;;;;;5031066;28;20459;-73
2021/07/16 09:38:07;;;;;;;6.97;6.10;;;22.60;99.90;;;;;;5031800;28;20400;-73
2021/07/16 09:40:53;;;;;;;7.40;6.40;;;22.70;99.90;;;;;;5026124;28;20574;-73
2021/07/16 09:43:40;;;;;;;7.20;6.10;;;22.80;99.90;;;;;;5023668;28;20422;-73
2021/07/16 09:46:26;;;;;;;7.10;6.30;;;22.80;99.90;;;;;;5030397;28;20592;-74
2021/07/16 09:49:14;;;;;;;16.93;7.57;;;22.90;99.90;;;;;;5016520;28;20453;-73
2021/07/16 09:52:08;;;;;;;6.77;6.07;;;22.80;99.90;;;;;;5023743;28;20953;-74
2021/07/16 09:55:08;;;;;;;7.20;6.40;;;22.90;99.90;;;;;;5019950;28;20835;-75
2021/07/16 09:57:55;;;;;;;8.47;6.30;;;23.00;99.90;;;;;;5025093;28;20476;-74
2021/07/16 10:00:42;;;;;;;6.63;6.00;;;23.10;99.90;;;;;;5010788;28;20922;-74
2021/07/16 10:03:29;;;;;;;7.60;6.10;;;23.20;99.90;;;;;;5023484;28;20550;-75
2021/07/16 10:06:15;;;;;;;7.07;5.50;;;23.20;99.90;;;;;;5027304;28;20530;-75
2021/07/16 10:09:01;;;;;;;6.90;5.80;;;23.30;99.90;;;;;;5032623;28;20505;-74
2021/07/16 10:11:48;;;;;;;7.10;5.20;;;23.30;99.90;;;;;;5030158;28;20830;-73
2021/07/16 10:14:35;;;;;;;6.70;5.53;;;23.30;99.90;;;;;;5029642;28;20459;-74
2021/07/16 10:17:23;;;;;;;5.70;4.90;;;23.40;99.90;;;;;;5027664;28;20430;-72
2021/07/16 10:20:11;;;;;;;7.10;5.30;;;23.40;99.90;;;;;;5024899;28;20437;-72
2021/07/16 10:22:57;;;;;;;8.33;4.87;;;23.50;99.90;;;;;;5028764;28;20457;-72
2021/07/16 10:25:43;;;;;;;5.70;3.97;;;23.60;99.90;;;;;;5033272;28;21009;-73
2021/07/16 10:28:40;;;;;;;4.60;4.17;;;23.70;99.90;;;;;;5033651;28;20445;-73
2021/07/16 10:31:39;;;;;;;7.53;4.77;;;23.70;99.90;;;;;;5032227;28;20954;-73
2021/07/16 10:34:34;;;;;;;5.37;4.87;;;23.60;99.90;;;;;;5034955;28;20496;-73
2021/07/16 10:37:32;;;;;;;4.20;3.80;;;23.60;99.90;;;;;;5033193;28;20458;-73
2021/07/16 10:40:39;;;;;;;5.73;4.93;;;23.60;99.90;;;;;;5033882;28;20585;-72
2021/07/16 10:43:43;;;;;;;9.03;5.07;;;23.50;99.90;;;;;;5030149;28;20419;-74
2021/07/16 10:46:31;;;;;;;6.00;5.33;;;23.50;99.90;;;;;;5031026;28;20475;-74
2021/07/16 10:49:18;;;;;;;4.83;4.20;;;23.50;99.90;;;;;;5032199;28;20453;-73
2021/07/16 10:52:06;;;;;;;5.40;4.90;;;23.60;99.90;;;;;;5032271;28;20438;-73
2021/07/16 10:54:52;;;;;;;7.27;4.97;;;23.80;99.90;;;;;;5028627;28;20496;-73
2021/07/16 10:57:41;;;;;;;5.40;4.43;;;23.90;99.90;;;;;;5027837;28;20440;-76
2021/07/16 11:00:49;;;;;;;5.40;4.17;;;24.10;99.90;;;;;;5030394;28;20449;-75
2021/07/16 11:03:40;;;;;;;6.20;4.13;;;24.20;99.90;;;;;;5029862;28;20803;-75
2021/07/16 11:06:48;;;;;;;5.80;4.10;;;24.30;99.90;;;;;;5033413;28;20443;-74
2021/07/16 11:09:45;;;;;;;5.53;3.47;;;24.40;99.90;;;;;;5032973;28;20450;-74
2021/07/16 11:12:35;;;;;;;4.67;3.80;;;24.60;99.90;;;;;;5032583;28;20425;-74
2021/07/16 11:15:30;;;;;;;5.40;4.60;;;24.60;99.90;;;;;;5032158;28;20531;-73
2021/07/16 11:18:27;;;;;;;5.43;4.13;;;24.70;99.90;;;;;;5032333;28;20451;-74
2021/07/16 11:21:12;;;;;;;4.77;4.17;;;24.80;99.90;;;;;;5032472;28;20453;-74
2021/07/16 11:23:58;;;;;;;5.77;5.17;;;25.00;99.90;;;;;;5028502;28;21057;-73
2021/07/16 11:26:49;;;;;;;7.43;4.30;;;25.10;99.90;;;;;;5027609;28;20473;-73
2021/07/16 11:29:37;;;;;;;7.27;4.50;;;25.10;99.90;;;;;;5028733;28;20445;-74
2021/07/16 11:32:25;;;;;;;9.23;4.80;;;25.30;99.90;;;;;;5027418;28;20452;-73
2021/07/16 11:35:13;;;;;;;4.30;3.40;;;25.50;99.90;;;;;;5029640;28;20470;-74
2021/07/16 11:37:59;;;;;;;4.27;3.40;;;25.60;95.80;;;;;;5027759;28;21001;-73
2021/07/16 11:40:45;;;;;;;3.40;2.80;;;25.70;94.80;;;;;;5031340;28;20449;-73
2021/07/16 11:43:32;;;;;;;2.97;2.67;;;25.80;95.30;;;;;;5031389;28;20447;-73
2021/07/16 11:46:26;;;;;;;4.07;2.80;;;25.90;92.20;;;;;;5033263;28;21000;-73
2021/07/16 11:49:24;;;;;;;3.47;2.70;;;26.00;91.10;;;;;;5030389;28;20974;-73
2021/07/16 11:52:10;;;;;;;3.73;3.23;;;26.00;89.10;;;;;;5030247;28;20542;-74
2021/07/16 11:55:04;;;;;;;3.93;3.53;;;26.10;87.90;;;;;;5027422;28;20554;-73
2021/07/16 11:57:55;;;;;;;4.80;3.90;;;26.10;92.10;;;;;;5031866;28;20545;-73
2021/07/16 12:00:43;;;;;;;7.63;4.47;;;25.80;90.90;;;;;;5024995;28;20453;-73
2021/07/16 12:03:31;;;;;;;15.13;4.50;;;25.70;92.40;;;;;;5033299;28;20569;-73
2021/07/16 12:06:19;;;;;;;4.30;3.90;;;25.70;95.10;;;;;;5031490;28;20546;-73
2021/07/16 12:09:05;;;;;;;7.00;3.90;;;25.50;95.70;;;;;;5034166;28;20444;-73
2021/07/16 12:12:01;;;;;;;4.63;3.90;;;25.50;94.20;;;;;;5024996;28;20487;-74
2021/07/16 12:14:48;;;;;;;6.67;3.90;;;25.80;93.80;;;;;;5026022;28;20449;-74
2021/07/16 12:17:37;;;;;;;6.43;4.00;;;25.80;88.40;;;;;;5032659;28;20500;-74
2021/07/16 12:20:27;;;;;;;7.77;4.90;;;26.10;89.70;;;;;;5030938;28;20461;-74
2021/07/16 12:23:16;;;;;;;6.93;4.60;;;26.30;91.70;;;;;;5033075;28;20508;-74
2021/07/16 12:26:15;;;;;;;5.17;4.40;;;26.30;90.30;;;;;;5028272;28;20600;-73
2021/07/16 12:29:05;;;;;;;4.33;3.93;;;26.20;90.80;;;;;;5027478;28;20602;-73
2021/07/16 12:31:51;;;;;;;9.57;4.70;;;25.90;90.10;;;;;;5031772;28;20967;-73
2021/07/16 12:34:44;;;;;;;5.93;5.33;;;25.80;90.60;;;;;;5030557;28;20474;-73
2021/07/16 12:37:37;;;;;;;6.30;4.50;;;25.90;92.50;;;;;;5032978;28;20509;-73
2021/07/16 12:40:23;;;;;;;5.33;4.57;;;25.90;92.70;;;;;;5031262;28;20499;-73
2021/07/16 12:43:11;;;;;;;8.10;5.00;;;25.90;90.20;;;;;;5023042;28;20435;-74
2021/07/16 12:45:57;;;;;;;5.30;4.70;;;26.20;90.40;;;;;;5025058;28;20496;-74
2021/07/16 12:48:42;;;;;;;5.90;5.30;;;26.50;90.90;;;;;;5025147;28;20589;-74
2021/07/16 12:51:31;;;;;;;5.73;5.20;;;26.70;87.90;;;;;;5026715;28;20438;-74
2021/07/16 12:54:20;;;;;;;7.70;5.90;;;26.60;89.60;;;;;;5030951;28;21008;-74
2021/07/16 12:57:16;;;;;;;9.37;8.27;;;26.30;90.90;;;;;;5032155;28;20550;-73
2021/07/16 13:00:01;;;;;;;10.43;7.40;;;25.70;97.20;;;;;;5028097;28;20449;-74
2021/07/16 13:02:48;;;;;;;11.67;9.03;;;25.30;99.90;;;;;;5023755;28;20449;-73
2021/07/16 13:05:34;;;;;;;11.97;9.03;;;24.50;99.90;;;;;;5026920;28;20976;-73
2021/07/16 13:08:23;;;;;;;9.97;8.50;;;24.30;99.90;;;;;;5032007;28;20404;-74
2021/07/16 13:11:13;;;;;;;10.13;8.97;;;24.30;99.90;;;;;;5029539;28;20417;-74
2021/07/16 13:13:59;;;;;;;11.23;9.77;;;24.50;99.90;;;;;;5025997;28;20477;-73
2021/07/16 13:16:44;;;;;;;9.93;8.80;;;24.60;99.90;;;;;;5031156;28;20439;-73
2021/07/16 13:19:30;;;;;;;9.60;8.50;;;24.50;99.90;;;;;;5031061;28;20453;-73
2021/07/16 13:22:15;;;;;;;8.13;7.30;;;24.20;99.90;;;;;;5031932;28;20413;-73
2021/07/16 13:25:05;;;;;;;13.80;9.43;;;24.00;99.90;;;;;;5030430;28;21013;-73
2021/07/16 13:27:51;;;;;;;11.40;7.90;;;23.90;99.90;;;;;;5027349;28;20418;-73
2021/07/16 13:30:36;;;;;;;12.77;9.03;;;23.80;99.90;;;;;;5011954;28;20516;-73
2021/07/16 13:33:22;;;;;;;10.20;8.70;;;23.70;99.90;;;;;;5029530;28;20482;-73
2021/07/16 13:36:07;;;;;;;12.63;9.97;;;23.50;99.90;;;;;;5030688;28;20557;-73
2021/07/16 13:38:53;;;;;;;9.53;8.60;;;23.50;99.90;;;;;;5027250;28;20424;-73
2021/07/16 13:41:41;;;;;;;10.80;9.50;;;23.50;99.90;;;;;;5028609;28;20446;-73
2021/07/16 13:44:27;;;;;;;9.90;8.90;;;23.50;99.90;;;;;;5029320;28;20571;-73
2021/07/16 13:47:13;;;;;;;13.80;9.33;;;23.50;99.90;;;;;;5030362;28;20478;-73
2021/07/16 13:49:58;;;;;;;10.47;8.53;;;23.40;99.90;;;;;;5024034;28;20503;-72
2021/07/16 13:52:44;;;;;;;9.23;8.00;;;23.50;99.90;;;;;;5011879;28;20437;-72
2021/07/16 13:55:30;;;;;;;9.47;8.50;;;23.90;99.90;;;;;;5029111;28;21076;-73
2021/07/16 13:58:18;;;;;;;8.20;7.40;;;24.30;99.90;;;;;;5029650;28;20414;-73
2021/07/16 14:01:04;;;;;;;18.30;9.17;;;24.80;99.90;;;;;;5031234;28;20491;-73
2021/07/16 14:03:49;;;;;;;11.70;8.20;;;25.10;99.90;;;;;;5028287;28;20490;-73
2021/07/16 14:06:35;;;;;;;8.73;7.83;;;25.50;99.90;;;;;;5030834;28;20994;-73
2021/07/16 14:09:21;;;;;;;8.83;7.93;;;25.50;99.90;;;;;;5033708;28;20530;-73
2021/07/16 14:12:08;;;;;;;9.00;8.07;;;25.30;99.90;;;;;;5031090;28;20438;-73
2021/07/16 14:14:55;;;;;;;11.50;7.80;;;25.30;99.90;;;;;;5050790;22;20651;-77
2021/07/16 14:17:41;;;;;;;10.03;7.37;;;25.40;99.90;;;;;;5032146;28;20759;-76
2021/07/16 14:20:26;;;;;;;10.53;6.90;;;25.70;99.90;;;;;;5049915;28;21152;-76
2021/07/16 14:23:12;;;;;;;9.00;6.83;;;26.00;99.90;;;;;;5051123;28;20524;-73
2021/07/16 14:25:58;;;;;;;7.57;6.87;;;26.40;99.90;;;;;;5061585;28;20526;-76
2021/07/16 14:28:43;;;;;;;8.80;6.33;;;26.60;99.90;;;;;;5064085;28;20894;-75